Terminal Aerodrome Forecast
Issued by NWS

Home | Current Version | Previous Version | Graphics & Text | Print | Product List | Glossary On
Versions: 1 2 3 4 5 6 7 8 9 10 11 12 13 14 15 16 17
000
FTUS43 KGRB 261700
TAFMTW
TAF
KMTW 261739Z 2618/2718 29007KT P6SM SCT035 BKN200
     FM262200 14008KT P6SM SCT040 BKN200
     FM270200 VRB03KT P6SM BKN150
     FM270700 05003KT P6SM SCT035 BKN120
     FM271300 04007KT P6SM BKN035=

USA.gov is the U.S. government's official web portal to all federal, state and local government web resources and services.